Tiempo atmosférico en la estación meteorológica de Doña Mencia, Córdoba (650 m.)



Fecha
DESCASC
Temp. máxima en grados centígrados (hora)
DESCASC
Temp. mínima en grados centígrados (hora)
DESCASC
Temp. media en grados centígrados
DESCASC
Racha de viento máxima en m/sg (hora)
DESCASC
Velocidad máxima media en intervalos de 10 minutos(hora)
DESCASC
Precipitaciones diarias en mm
DESCASC
Precipitaciones de 00:00 a 06:00 en mm
DESCASC
Precipitaciones de 06:00 a 12:00 en mm
DESCASC
Precipitaciones de 12:00 a 18:00 en mm
DESCASC
Precipitaciones de 18:00 a 24:00 en mm
DESCASC
08-12-2019 16 (15:30) 9.6 (05:30) 12.8 5.83 (15:00) 3.33 (15:00) 0 0 0 0 0
07-12-2019 16 (15:00) 8.8 (06:40) 12.4 4.72 (07:00) 3.89 (07:10) 0 0 0 0 0
06-12-2019 17.5 (14:00) 9.6 (05:00) 13.6 8.33 (04:30) 5.83 (00:10) 0 0 0 0 0
05-12-2019 14.3 (14:40) 7.3 (00:00) 10.8 7.78 (23:20) 5.56 (23:59) 0 0 0 0 0
04-12-2019 13.5 (15:50) 7 (00:00) 10.3 6.39 (14:50) 3.89 (08:20) 0 0 0 0 0
03-12-2019 13.7 (14:10) 8.4 (00:00) 11 6.67 (10:10) 5.28 (23:30) 0 0 0 0 0
02-12-2019 15.1 (15:10) 8.1 (00:00) 11.6 8.33 (05:50) 5.28 (05:50) 1.9 1.9 0 0 0
01-12-2019 14.2 (12:50) 7.8 (00:00) 11 11.67 (18:00) 6.39 (17:50) 8.7 1.4 0 5.5 1.8
30-11-2019 18.2 (13:40) 11.1 (00:00) 14.7 9.72 (22:00) 5.28 (15:50) 0 0 0 0 0
29-11-2019 18.3 (14:40) 9.2 (00:00) 13.7 6.11 (21:00) 4.72 (20:30) 0 0 0 0 0
28-11-2019 15.4 (15:10) 9.5 (00:00) 12.4 5 (14:10) 3.06 (14:10) 0 0 0 0 0
27-11-2019 15 (15:00) 11.7 (00:00) 13.3 -- (--) -- (--) 3.9 2 1.9 0 0
26-11-2019 16.8 (16:20) 11.3 (00:00) 14 -- (--) -- (--) 0.3 0 0.1 0 0.2
25-11-2019 14.5 (19:20) 9.4 (00:00) 11.9 12.5 (10:50) 7.5 (10:10) 1.9 0 0 0.2 1.7
24-11-2019 13 (15:20) 6.2 (00:00) 9.6 5.56 (23:40) 3.06 (14:50) 0 0 0 0 0
23-11-2019 12.8 (17:00) 8.2 (00:00) 10.5 16.94 (03:00) 9.72 (01:50) 3.6 3.6 0 0 0
22-11-2019 15.2 (11:30) 10.7 (00:00) 12.9 23.06 (16:00) 13.33 (18:50) 35.4 3 4.4 23.5 4.5
21-11-2019 13.7 (13:50) 8.5 (00:00) 11.1 10.83 (23:20) 6.11 (23:30) 39.4 6.6 7.3 19.2 6.3
20-11-2019 11.4 (16:50) 7.4 (00:00) 9.4 12.22 (19:10) 6.67 (21:00) 2.7 0 0 1.7 1
19-11-2019 12.9 (16:20) 6.6 (00:00) 9.7 4.44 (16:00) 2.5 (20:20) 0 0 0 0 0
18-11-2019 13.1 (16:10) 5.8 (00:00) 9.5 17.22 (01:20) 10 (01:30) 10.3 10.3 0 0 0
17-11-2019 11.8 (22:00) 5.1 (00:00) 8.5 15.28 (13:40) 9.17 (23:50) 5 0 0 0.5 4.5
16-11-2019 11.4 (15:30) 3 (00:00) 7.2 6.94 (20:30) 3.61 (17:00) 0 0 0 0 0
15-11-2019 8.8 (13:50) 4.2 (00:00) 6.5 12.22 (00:30) 6.94 (03:40) 0 0 0 0 0
14-11-2019 12.5 (00:20) 7.2 (00:00) 9.8 14.72 (13:20) 8.89 (13:20) 2.4 0 0.7 1.7 0
13-11-2019 14.8 (16:30) 9.8 (00:00) 12.3 12.5 (08:20) 7.5 (08:10) 0.9 0 0.9 0 0
12-11-2019 14.9 (15:50) 8.9 (00:00) 11.9 6.11 (16:40) 3.61 (17:00) 0 0 0 0 0
11-11-2019 12.3 (14:50) 7.8 (06:50) 10.1 6.94 (16:40) 4.72 (16:40) 0 0 0 0 0
10-11-2019 12.5 (15:00) 8.3 (00:00) 10.4 11.67 (01:50) 6.67 (00:30) 0 0 0 0 0
09-11-2019 15.1 (15:40) 6.9 (00:00) 11 12.78 (22:30) 6.67 (22:30) 0 0 0 0 0

Gráficas

Temp. máximas Temp. mínimas Temp. medias Precipitaciones Rachas de viento máximas Velocidades máximas media en intervalos de 10 minutos

Datos horarios

Fecha y hora oficial Temperatura (ºC) Velocidad del viento (km/h) Dirección del viento Racha (km/h) Dirección de racha Precipitación (mm) Presión (hPa) Tendencia (hPa) Humedad (%)
2019-12-08 23:00:00 11.2 4 Noroeste 11 Noroeste 0 -- -- 76
2019-12-08 22:00:00 11.6 6 Norte 12 Noroeste 0 -- -- 72
2019-12-08 21:00:00 11.6 3 Nordeste 5 Noroeste 0 -- -- 71
2019-12-08 20:00:00 12 5 Noroeste 7 Noroeste 0 -- -- 71
2019-12-08 19:00:00 11.9 4 Noroeste 10 Noroeste 0 -- -- 71
2019-12-08 18:00:00 12.5 7 Noroeste 13 Oeste 0 -- -- 69
2019-12-08 17:00:00 13.6 10 Oeste 15 Oeste 0 -- -- 60
2019-12-08 16:00:00 15 10 Oeste 17 Oeste 0 -- -- 51
2019-12-08 15:00:00 15.5 12 Oeste 21 Oeste 0 -- -- 54
2019-12-08 14:00:00 14.9 9 Oeste 14 Oeste 0 -- -- 59
2019-12-08 13:00:00 14.9 6 Oeste 13 Oeste 0 -- -- 60
2019-12-08 12:00:00 13.7 4 Oeste 7 Oeste 0 -- -- 62
2019-12-08 11:00:00 12.1 5 Noroeste 11 Oeste 0 -- -- 74
2019-12-08 10:00:00 12 3 Noroeste 5 Noroeste 0 -- -- 76
2019-12-08 09:00:00 11.1 0 Calma 4 Este 0 -- -- 77
2019-12-08 08:00:00 10.3 2 Norte 4 Norte 0 -- -- 77
2019-12-08 07:00:00 9.9 0 Calma 5 Noroeste 0 -- -- 79
2019-12-08 06:00:00 9.7 5 Norte 8 Norte 0 -- -- 80
2019-12-08 05:00:00 10.1 4 Noroeste 7 Noroeste 0 -- -- 75
2019-12-08 04:00:00 10 4 Norte 5 Noroeste 0 -- -- 74
2019-12-08 03:00:00 10.6 3 Nordeste 6 Noroeste 0 -- -- 74
2019-12-08 02:00:00 11.5 0 Calma 7 Este 0 -- -- 71
2019-12-08 01:00:00 10.1 3 Este 5 Sudeste 0 -- -- 74
2019-12-08 00:00:00 11.1 5 Nordeste 9 Sudeste 0 -- -- 67
2019-12-07 23:00:00 11.4 3 Este 6 Este 0 -- -- 64
2019-12-07 22:00:00 11.7 0 Calma 6 Norte 0 -- -- 64
2019-12-07 21:00:00 12.6 0 Calma 6 Nordeste 0 -- -- 61
2019-12-07 20:00:00 12 0 Calma 4 Este 0 -- -- 67
2019-12-07 19:00:00 11.7 2 Este 4 Este 0 -- -- 69
2019-12-07 18:00:00 13.3 0 Calma 9 Oeste 0 -- -- 62
2019-12-07 17:00:00 14.9 7 Noroeste 15 Noroeste 0 -- -- 58
2019-12-07 16:00:00 15.4 9 Noroeste 17 Noroeste 0 -- -- 60
2019-12-07 15:00:00 15.6 8 Noroeste 17 Noroeste 0 -- -- 60
2019-12-07 14:00:00 15.6 4 Oeste 13 Noroeste 0 -- -- 61
2019-12-07 13:00:00 14.5 8 Noroeste 14 Noroeste 0 -- -- 64
2019-12-07 12:00:00 14.5 4 Oeste 9 Oeste 0 -- -- 63
2019-12-07 11:00:00 13.4 2 Oeste 8 Oeste 0 -- -- 68
2019-12-07 10:00:00 13.1 3 Sudeste 5 Sudeste 0 -- -- 71
2019-12-07 09:00:00 10.1 3 Sudeste 8 Este 0 -- -- 81
2019-12-07 08:00:00 9.3 9 Este 17 Este 0 -- -- 84
2019-12-07 07:00:00 9.2 12 Este 17 Este 0 -- -- 91
2019-12-07 06:00:00 9.3 5 Este 16 Este 0 -- -- 88
2019-12-07 05:00:00 9.2 6 Este 14 Este 0 -- -- 87
2019-12-07 04:00:00 9.6 10 Este 14 Este 0 -- -- 82
2019-12-07 03:00:00 10.9 3 Este 6 Este 0 -- -- 76
2019-12-07 02:00:00 10.8 0 Calma 5 Este 0 -- -- 75
2019-12-07 01:00:00 11.3 0 Calma 5 Nordeste 0 -- -- 70
2019-12-07 00:00:00 11.2 2 Norte 10 Noroeste 0 -- -- 69
2019-12-06 23:00:00 12.9 3 Nordeste 17 Sudeste 0 -- -- 62
2019-12-06 22:00:00 12.2 10 Sudeste 13 Sudeste 0 -- -- 66
2019-12-06 21:00:00 12 8 Sudeste 10 Este 0 -- -- 68
2019-12-06 20:00:00 12.1 7 Este 10 Este 0 -- -- 67
2019-12-06 19:00:00 12.6 3 Este 8 Sudeste 0 -- -- 63
2019-12-06 18:00:00 14.3 3 Este 8 Norte 0 -- -- 54
2019-12-06 17:00:00 16.6 4 Nordeste 12 Nordeste 0 -- -- 51
2019-12-06 16:00:00 17 3 Sur 14 Oeste 0 -- -- 51
2019-12-06 15:00:00 16.7 6 Noroeste 17 Oeste 0 -- -- 53
2019-12-06 14:00:00 17.4 3 Sudeste 17 Sudeste 0 -- -- 48
2019-12-06 13:00:00 17.2 2 Este 24 Sudeste 0 -- -- 50
2019-12-06 12:00:00 15.5 5 Sudeste 19 Este 0 -- -- 56
2019-12-06 11:00:00 13.1 3 Este 12 Este 0 -- -- 65
2019-12-06 10:00:00 13.5 8 Este 17 Este 0 -- -- 61
2019-12-06 09:00:00 10.6 14 Este 21 Este 0 -- -- 66
2019-12-06 08:00:00 10.5 14 Este 19 Este 0 -- -- 64
2019-12-06 07:00:00 10.6 13 Este 21 Este 0 -- -- 66
2019-12-06 06:00:00 10.3 11 Este 22 Sudeste 0 -- -- 69
2019-12-06 05:00:00 9.7 9 Este 30 Sudeste 0 -- -- 71
2019-12-06 04:00:00 11.4 14 Sudeste 22 Sudeste 0 -- -- 62
2019-12-06 03:00:00 11 8 Este 21 Este 0 -- -- 65
2019-12-06 02:00:00 11.6 7 Sudeste 25 Sudeste 0 -- -- 64
2019-12-06 01:00:00 10.9 19 Sudeste 29 Sudeste 0 -- -- 69
2019-12-06 00:00:00 10.9 20 Sudeste 28 Sudeste 0 -- -- 69
2019-12-05 23:00:00 11.4 9 Sudeste 19 Este 0 -- -- 69
2019-12-05 22:00:00 11.7 10 Sudeste 19 Sudeste 0 -- -- 71
2019-12-05 21:00:00 11 9 Este 13 Este 0 -- -- 79
2019-12-05 20:00:00 11.2 6 Este 10 Este 0 -- -- 80
2019-12-05 19:00:00 11.6 7 Sudeste 11 Sudeste 0 -- -- 77
2019-12-05 18:00:00 12 5 Sur 18 Sudeste 0 -- -- 74
2019-12-05 17:00:00 12.8 5 Este 14 Nordeste 0 -- -- 70
2019-12-05 16:00:00 12.7 5 Nordeste 14 Nordeste 0 -- -- 71
2019-12-05 15:00:00 13.2 6 Nordeste 14 Nordeste 0 -- -- 67
2019-12-05 14:00:00 13.1 5 Sudeste 19 Este 0 -- -- 66
2019-12-05 13:00:00 13.2 6 Nordeste 19 Nordeste 0 -- -- 69
2019-12-05 12:00:00 12.7 10 Nordeste 25 Sudeste 0 -- -- 70
2019-12-05 11:00:00 12.1 14 Sudeste 26 Sudeste 0 -- -- 76
2019-12-05 10:00:00 10 9 Sudeste 20 Sudeste 0 -- -- 89
2019-12-05 09:00:00 7.7 6 Este 19 Norte 0 -- -- 99
2019-12-05 08:00:00 7.6 6 Sudeste 19 Sudeste 0 -- -- 99
2019-12-05 07:00:00 7.8 13 Este 17 Este 0 -- -- 96
2019-12-05 06:00:00 7.7 12 Este 15 Sudeste 0 -- -- 96
2019-12-05 05:00:00 8.1 10 Este 17 Este 0 -- -- 95
2019-12-05 04:00:00 7.5 3 Norte 11 Norte 0 -- -- 87
2019-12-05 03:00:00 7.9 6 Norte 11 Norte 0 -- -- 89
2019-12-05 02:00:00 8.7 0 Calma 6 Noroeste 0 -- -- 89
2019-12-05 01:00:00 8.3 3 Noroeste 10 Norte 0 -- -- 87
2019-12-05 00:00:00 8.7 5 Noroeste 9 Noroeste 0 -- -- 92
2019-12-04 23:00:00 8.8 5 Noroeste 12 Noroeste 0 -- -- 92
2019-12-04 22:00:00 8.5 9 Noroeste 18 Oeste 0 -- -- 93
2019-12-04 21:00:00 9.7 5 Noroeste 8 Noroeste 0 -- -- 84
2019-12-04 20:00:00 9.4 4 Noroeste 11 Noroeste 0 -- -- 86
2019-12-04 19:00:00 9.2 3 Sudoeste 6 Sudoeste 0 -- -- 85
2019-12-04 18:00:00 9.8 3 Sudeste 14 Nordeste 0 -- -- 81
2019-12-04 17:00:00 10.5 8 Nordeste 19 Nordeste 0 -- -- 76
2019-12-04 16:00:00 13 11 Oeste 19 Oeste 0 -- -- 64
2019-12-04 15:00:00 11.4 14 Oeste 23 Oeste 0 -- -- 76
2019-12-04 14:00:00 11.6 12 Oeste 16 Oeste 0 -- -- 71
2019-12-04 13:00:00 10.5 6 Noroeste 13 Oeste 0 -- -- 90
2019-12-04 12:00:00 9.1 7 Oeste 10 Oeste 0 -- -- 94
2019-12-04 11:00:00 9.8 4 Oeste 12 Noroeste 0 -- -- 95
2019-12-04 10:00:00 8.8 4 Noroeste 10 Este 0 -- -- 92
2019-12-04 09:00:00 8.7 10 Este 19 Este 0 -- -- 93
2019-12-04 08:00:00 7.8 13 Este 17 Este 0 -- -- 97
2019-12-04 07:00:00 7.6 0 Calma 5 Nordeste 0 -- -- 99
2019-12-04 06:00:00 7.1 4 Noroeste 9 Noroeste 0 -- -- 99
2019-12-04 05:00:00 8.1 0 Calma 8 Noroeste 0 -- -- 94
2019-12-04 04:00:00 8.3 0 Calma 10 Este 0 -- -- 96
2019-12-04 03:00:00 7.5 7 Nordeste 14 Este 0 -- -- 96
2019-12-04 02:00:00 7.8 0 Calma 3 Este 0 -- -- 96
2019-12-04 01:00:00 8 2 Noroeste 7 Oeste 0 -- -- 93
2019-12-04 00:00:00 8.5 2 Noroeste 24 Este 0 -- -- 90
2019-12-03 23:00:00 8.9 13 Este 20 Este 0 -- -- 88
2019-12-03 22:00:00 9.4 10 Este 22 Sudeste 0 -- -- 82
2019-12-03 21:00:00 10 7 Sudeste 16 Nordeste 0 -- -- 79
2019-12-03 20:00:00 10.8 9 Nordeste 19 Nordeste 0 -- -- 75
2019-12-03 19:00:00 11.6 6 Nordeste 15 Nordeste 0 -- -- 69
2019-12-03 18:00:00 12.1 3 Nordeste 13 Noroeste 0 -- -- 67
2019-12-03 17:00:00 12.7 3 Oeste 17 Este 0 -- -- 64
2019-12-03 16:00:00 12.4 4 Nordeste 22 Nordeste 0 -- -- 66
2019-12-03 15:00:00 12.9 7 Nordeste 20 Norte 0 -- -- 67
2019-12-03 14:00:00 13.4 7 Nordeste 21 Este 0 -- -- 69
2019-12-03 13:00:00 11.8 8 Este 17 Sur 0 -- -- 78
2019-12-03 12:00:00 10.7 5 Nordeste 23 Nordeste 0 -- -- 82
2019-12-03 11:00:00 10.6 0 Calma 24 Sudeste 0 -- -- 89
2019-12-03 10:00:00 9.4 4 Sudeste 16 Sudeste 0 -- -- 94
2019-12-03 09:00:00 9.1 9 Sudeste 22 Sudeste 0 -- -- 96
2019-12-03 08:00:00 8.6 0 Calma 18 Sudeste 0 -- -- 96
2019-12-03 07:00:00 8.5 2 Sudoeste 17 Sur 0 -- -- 96
2019-12-03 06:00:00 8.6 12 Sudeste 22 Sudeste 0 -- -- 96
2019-12-03 05:00:00 9.3 3 Nordeste 16 Sudeste 0 -- -- 93
2019-12-03 04:00:00 9.4 11 Sudeste 23 Sudeste 0 -- -- 93
2019-12-03 03:00:00 9.2 10 Este 15 Sudeste 0 -- -- 93
2019-12-03 02:00:00 9.6 7 Este 14 Este 0 -- -- 88
2019-12-03 01:00:00 10 5 Nordeste 22 Sudeste 0 -- -- 85
2019-12-03 00:00:00 9.8 5 Sudeste 22 Sur 0 -- -- 83
2019-12-02 23:00:00 9.7 0 Calma 15 Noroeste 0 -- -- 78
2019-12-02 22:00:00 10.5 3 Sur 14 Sudeste 0 -- -- 74
2019-12-02 21:00:00 10.7 4 Sur 12 Sur 0 -- -- 74
2019-12-02 20:00:00 10.9 6 Sudeste 15 Sudeste 0 -- -- 75
2019-12-02 19:00:00 11.6 4 Sur 17 Sur 0 -- -- 71
2019-12-02 18:00:00 12.4 3 Sur 15 Nordeste 0 -- -- 68
2019-12-02 17:00:00 13.6 0 Calma 22 Este 0 -- -- 66
2019-12-02 16:00:00 14.2 9 Nordeste 21 Este 0 -- -- 66
2019-12-02 15:00:00 14.6 5 Nordeste 18 Nordeste 0 -- -- 65
2019-12-02 14:00:00 13.2 5 Este 20 Sudeste 0 -- -- 68
2019-12-02 13:00:00 12.5 9 Nordeste 21 Nordeste 0 -- -- 75
2019-12-02 12:00:00 13 9 Nordeste 20 Este 0 -- -- 63
2019-12-02 11:00:00 11.5 10 Sudeste 24 Este 0 -- -- 72
2019-12-02 10:00:00 10.5 15 Este 26 Sudeste 0 -- -- 84
2019-12-02 09:00:00 8.9 12 Sudeste 24 Sudeste 0 -- -- 91
2019-12-02 08:00:00 8.9 13 Sudeste 27 Sudeste 0 -- -- 93
2019-12-02 07:00:00 9.3 13 Este 24 Sudeste 0 -- -- 93
2019-12-02 06:00:00 8.5 15 Sudeste 30 Sudeste 0 -- -- 99
2019-12-02 05:00:00 8.5 16 Este 23 Este 0.4 -- -- 99
2019-12-02 04:00:00 8.7 6 Este 15 Este 0.1 -- -- 99
2019-12-02 03:00:00 8.5 3 Sudeste 10 Norte 0.7 -- -- 99
2019-12-02 02:00:00 8.5 5 Oeste 19 Noroeste 0.6 -- -- 99
2019-12-02 01:00:00 9.7 4 Sur 19 Oeste 0.1 -- -- 96
2019-12-02 00:00:00 9.9 9 Oeste 21 Oeste 1 -- -- 95
2019-12-01 23:00:00 9.9 12 Oeste 27 Oeste 0 -- -- 94
2019-12-01 22:00:00 9.5 9 Noroeste 19 Sudoeste 0 -- -- 99
2019-12-01 21:00:00 9.9 8 Oeste 19 Oeste 0 -- -- 99
2019-12-01 20:00:00 9.8 9 Oeste 25 Oeste 0 -- -- 98
2019-12-01 19:00:00 10 17 Oeste 36 Oeste 0.8 -- -- 94
2019-12-01 18:00:00 9.8 21 Oeste 42 Oeste 5 -- -- 97
2019-12-01 17:00:00 10.7 16 Oeste 31 Oeste 0.2 -- -- 92
2019-12-01 16:00:00 11 12 Noroeste 34 Oeste 0.3 -- -- 99
2019-12-01 15:00:00 12.2 16 Oeste 29 Oeste 0 -- -- 63
2019-12-01 14:00:00 12.8 16 Oeste 26 Oeste 0 -- -- 62
2019-12-01 13:00:00 12.9 14 Oeste 32 Oeste 0 -- -- 62
2019-12-01 12:00:00 12.7 17 Oeste 28 Oeste 0 -- -- 60
2019-12-01 11:00:00 12.1 10 Oeste 19 Oeste 0 -- -- 70
2019-12-01 10:00:00 10.1 6 Noroeste 13 Norte 0 -- -- 85
2019-12-01 09:00:00 8.7 0 Calma 9 Noroeste 0 -- -- 99
2019-12-01 08:00:00 8.4 4 Norte 15 Oeste 0 -- -- 99
2019-12-01 07:00:00 9.8 10 Oeste 19 Noroeste 0 -- -- 99
2019-12-01 06:00:00 10.6 8 Noroeste 24 Oeste 0 -- -- 99
2019-12-01 05:00:00 11.3 14 Oeste 28 Oeste 0.2 -- -- 99
2019-12-01 04:00:00 11.7 16 Oeste 28 Oeste 0.4 -- -- 99
2019-12-01 03:00:00 11.5 15 Oeste 33 Oeste 0.8 -- -- 99
2019-12-01 02:00:00 12 17 Oeste 38 Oeste 0 -- -- 99
2019-12-01 01:00:00 12.5 13 Noroeste 24 Noroeste 0 -- -- 88
2019-12-01 00:00:00 12.9 11 Noroeste 26 Oeste 0 -- -- 84
2019-11-30 23:00:00 12.9 14 Oeste 31 Oeste 0 -- -- 88
2019-11-30 22:00:00 13.2 19 Oeste 35 Oeste 0 -- -- 87
2019-11-30 21:00:00 13.1 14 Oeste 28 Oeste 0 -- -- 87
2019-11-30 20:00:00 12.9 13 Noroeste 25 Oeste 0 -- -- 93
2019-11-30 19:00:00 13.3 14 Oeste 23 Oeste 0 -- -- 89
2019-11-30 18:00:00 13.6 13 Noroeste 24 Oeste 0 -- -- 79
2019-11-30 17:00:00 15.7 15 Oeste 31 Oeste 0 -- -- 62
2019-11-30 16:00:00 17.1 18 Noroeste 28 Noroeste 0 -- -- 61
2019-11-30 15:00:00 17.6 15 Noroeste 26 Noroeste 0 -- -- 57
2019-11-30 14:00:00 17.6 11 Noroeste 22 Noroeste 0 -- -- 62
2019-11-30 13:00:00 17.9 7 Oeste 13 Oeste 0 -- -- 60
2019-11-30 12:00:00 16.7 3 Oeste 10 Oeste 0 -- -- 60
2019-11-30 11:00:00 16.1 2 Oeste 5 Oeste 0 -- -- 63
2019-11-30 10:00:00 13.8 3 Noroeste 21 Este 0 -- -- 74
2019-11-30 09:00:00 11.2 13 Este 18 Este 0 -- -- 84
2019-11-30 08:00:00 11.8 11 Este 15 Este 0 -- -- 80
2019-11-30 07:00:00 12.3 12 Este 18 Este 0 -- -- 79
2019-11-30 06:00:00 12.6 13 Este 19 Este 0 -- -- 79
2019-11-30 05:00:00 12.3 14 Este 18 Sudeste 0 -- -- 81
2019-11-30 04:00:00 11.8 10 Este 15 Sudeste 0 -- -- 83
2019-11-30 03:00:00 12.6 8 Este 15 Este 0 -- -- 80
2019-11-30 02:00:00 12.4 11 Este 17 Este 0 -- -- 83
2019-11-30 01:00:00 12.6 11 Este 17 Este 0 -- -- 84
2019-11-30 00:00:00 12.4 13 Este 19 Este 0 -- -- 85
2019-11-29 23:00:00 11.9 14 Este 18 Este 0 -- -- 87
2019-11-29 22:00:00 12.1 13 Este 21 Este 0 -- -- 87
2019-11-29 21:00:00 12.3 16 Este 22 Este 0 -- -- 86
2019-11-29 20:00:00 12.6 15 Este 19 Este 0 -- -- 85
2019-11-29 19:00:00 12.7 13 Este 19 Este 0 -- -- 82
2019-11-29 18:00:00 14.2 7 Este 14 Nordeste 0 -- -- 69
2019-11-29 17:00:00 16.3 6 Nordeste 12 Nordeste 0 -- -- 62
2019-11-29 16:00:00 17.9 3 Este 16 Este 0 -- -- 56
2019-11-29 15:00:00 17.2 5 Este 17 Sudeste 0 -- -- 56
2019-11-29 14:00:00 16.9 6 Este 21 Este 0 -- -- 58
2019-11-29 13:00:00 17.3 7 Sudeste 19 Nordeste 0 -- -- 58
2019-11-29 12:00:00 15.7 6 Nordeste 19 Sudeste 0 -- -- 59
2019-11-29 11:00:00 16.2 10 Sudeste 18 Sudeste 0 -- -- 61
2019-11-29 10:00:00 14.7 4 Este 9 Sudeste 0 -- -- 68
2019-11-29 09:00:00 11.4 6 Este 13 Sudeste 0 -- -- 80
2019-11-29 08:00:00 10 11 Sudeste 15 Este 0 -- -- 87
2019-11-29 07:00:00 9.7 11 Este 12 Este 0 -- -- 89
2019-11-29 06:00:00 10.9 0 Calma 4 Nordeste 0 -- -- 84
2019-11-29 05:00:00 10.8 0 Calma 6 Sudeste 0 -- -- 81
2019-11-29 04:00:00 10.7 0 Calma 17 Norte 0 -- -- 77
2019-11-29 03:00:00 10.8 7 Este 10 Este 0 -- -- 77
2019-11-29 02:00:00 11.1 9 Sudeste 11 Sudeste 0 -- -- 75
2019-11-29 01:00:00 10.9 8 Sudeste 11 Sudeste 0 -- -- 75
2019-11-29 00:00:00 11.3 4 Este 12 Sudeste 0 -- -- 73
2019-11-28 23:00:00 11.1 6 Sudeste 11 Sudeste 0 -- -- 75
2019-11-28 22:00:00 10.7 10 Sudeste 14 Sudeste 0 -- -- 82
2019-11-28 21:00:00 11.1 8 Este 9 Este 0 -- -- 82
2019-11-28 20:00:00 12 0 Calma 4 Este 0 -- -- 79
2019-11-28 19:00:00 11.9 0 Calma 13 Sudeste 0 -- -- 82
2019-11-28 18:00:00 12.9 6 Sudeste 10 Noroeste 0 -- -- 79
2019-11-28 17:00:00 13 8 Noroeste 14 Noroeste 0 -- -- 75
2019-11-28 16:00:00 13.7 7 Noroeste 15 Norte 0 -- -- 69
2019-11-28 15:00:00 15.1 7 Oeste 18 Noroeste 0 -- -- 64
2019-11-28 14:00:00 14.5 9 Noroeste 17 Noroeste 0 -- -- 65
2019-11-28 13:00:00 13.6 4 Noroeste 15 Noroeste 0 -- -- 70
2019-11-28 12:00:00 12.6 4 Oeste 13 Oeste 0 -- -- 73
2019-11-28 11:00:00 12.1 0 Calma 8 Oeste 0 -- -- 77
2019-11-28 10:00:00 11.6 0 Calma 5 Noroeste 0 -- -- 89
2019-11-28 09:00:00 10.8 0 Calma -- -- 0 -- -- 95
2019-11-28 08:00:00 9.8 -- -- -- -- 0 -- -- 99
2019-11-28 07:00:00 9.8 -- -- -- -- 0 -- -- 99
2019-11-28 06:00:00 10.2 -- -- -- -- 0 -- -- 99
2019-11-28 05:00:00 10.2 -- -- -- -- 0 -- -- 99
2019-11-28 04:00:00 10.6 -- -- -- -- 0 -- -- 99
2019-11-28 03:00:00 10.6 -- -- -- -- 0 -- -- 99
2019-11-28 02:00:00 10.8 -- -- -- -- 0 -- -- 99
2019-11-28 01:00:00 11.5 -- -- -- -- 0 -- -- 99
2019-11-28 00:00:00 12 -- -- -- -- 0 -- -- 99
2019-11-27 23:00:00 12.2 -- -- -- -- 0 -- -- 99
2019-11-27 22:00:00 12.3 -- -- -- -- 0 -- -- 95
2019-11-27 21:00:00 12.4 -- -- -- -- 0 -- -- 91
2019-11-27 20:00:00 12.3 -- -- -- -- 0 -- -- 89
2019-11-27 19:00:00 12 -- -- -- -- 0 -- -- 88
2019-11-27 18:00:00 12.6 -- -- -- -- 0 -- -- 88
2019-11-27 17:00:00 13 -- -- -- -- 0 -- -- 79
2019-11-27 16:00:00 13.8 -- -- -- -- 0 -- -- 72
2019-11-27 15:00:00 14.4 -- -- -- -- 0 -- -- 72
2019-11-27 14:00:00 13.1 -- -- -- -- 0 -- -- 95
2019-11-27 06:00:00 12.1 0 Calma -- -- 0 -- -- 99
2019-11-27 05:00:00 12.4 0 Calma -- -- 0.1 -- -- 99
2019-11-27 04:00:00 13 0 Calma -- -- 0.3 -- -- 99
2019-11-27 03:00:00 12.8 0 Calma -- -- 1.1 -- -- 99
2019-11-27 02:00:00 12.8 0 Calma -- -- 0.4 -- -- 99
2019-11-27 01:00:00 12.9 0 Calma -- -- 0.1 -- -- 99
2019-11-27 00:00:00 12.9 0 Calma -- -- 0.2 -- -- 99
2019-11-26 23:00:00 13.4 0 Calma -- -- 0 -- -- 95
2019-11-26 22:00:00 13.6 0 Calma -- -- 0 -- -- 98
2019-11-26 21:00:00 13.8 0 Calma -- -- 0 -- -- 99
2019-11-26 20:00:00 13.9 0 Calma -- -- 0 -- -- 99
2019-11-26 19:00:00 14.2 0 Calma -- -- 0 -- -- 99
2019-11-26 18:00:00 14.4 0 Calma -- -- 0 -- -- 99
2019-11-26 17:00:00 14.7 0 Calma -- -- 0 -- -- 99
2019-11-26 16:00:00 16.1 0 Calma -- -- 0 -- -- 90
2019-11-26 15:00:00 15.4 0 Calma -- -- 0 -- -- 84
2019-11-26 14:00:00 15.7 0 Calma -- -- 0 -- -- 81
2019-11-26 13:00:00 15.7 0 Calma -- -- 0 -- -- 82
2019-11-26 12:00:00 14.3 0 Calma -- -- 0 -- -- 98
2019-11-26 11:00:00 13.1 0 Calma -- -- 0 -- -- 99
2019-11-26 10:00:00 12.2 0 Calma -- -- 0 -- -- 99
2019-11-26 09:00:00 11.4 0 Calma -- -- 0 -- -- 99
2019-11-26 08:00:00 11.5 0 Calma -- -- 0 -- -- 99
2019-11-26 07:00:00 11.4 0 Calma -- -- 0.1 -- -- 99
2019-11-26 06:00:00 11.9 0 Calma -- -- 0 -- -- 99
2019-11-26 05:00:00 12.6 0 Calma -- -- 0 -- -- 99
2019-11-26 04:00:00 12.7 0 Calma -- -- 0 -- -- 99
2019-11-26 03:00:00 12.7 0 Calma -- -- 0 -- -- 99
2019-11-26 02:00:00 12.3 0 Calma 12 Norte 0 -- -- 99
2019-11-26 01:00:00 13.1 7 Noroeste 13 Oeste 0 -- -- 99
2019-11-26 00:00:00 13.7 9 Oeste 16 Oeste 0 -- -- 99
2019-11-25 23:00:00 13.8 8 Oeste 21 Oeste 0.1 -- -- 99
2019-11-25 22:00:00 14.1 15 Oeste 28 Oeste 0.1 -- -- 99
2019-11-25 21:00:00 14.3 15 Oeste 24 Oeste 0.5 -- -- 99
2019-11-25 20:00:00 14.4 15 Oeste 31 Oeste 0.7 -- -- 99
2019-11-25 19:00:00 14.4 20 Oeste 34 Oeste 0.3 -- -- 99
2019-11-25 18:00:00 14.2 18 Oeste 31 Oeste 0.1 -- -- 99
2019-11-25 17:00:00 14.2 21 Oeste 34 Oeste 0 -- -- 99
2019-11-25 16:00:00 14.1 19 Oeste 96 Oeste 0.1 -- -- 99
2019-11-25 15:00:00 14.1 16 Oeste 34 Oeste 0 -- -- 99
2019-11-25 14:00:00 14 22 Oeste 37 Oeste 0 -- -- 99
2019-11-25 13:00:00 13.6 22 Oeste 40 Oeste 0 -- -- 99
2019-11-25 12:00:00 13.5 23 Oeste 42 Oeste 0 -- -- 99
2019-11-25 11:00:00 13.1 24 Oeste 45 Oeste 0 -- -- 99
2019-11-25 10:00:00 13.1 24 Oeste 41 Oeste 0 -- -- 99
2019-11-25 09:00:00 11.7 17 Oeste 35 Oeste 0 -- -- 99
2019-11-25 08:00:00 11.5 14 Oeste 32 Noroeste 0 -- -- 99
2019-11-25 07:00:00 11.7 15 Noroeste 30 Oeste 0 -- -- 99
2019-11-25 06:00:00 10.5 9 Noroeste 22 Noroeste 0 -- -- 99
2019-11-25 05:00:00 10.5 10 Oeste 21 Noroeste 0 -- -- 99
2019-11-25 04:00:00 10.4 10 Noroeste 18 Noroeste 0 -- -- 99
2019-11-25 03:00:00 10.1 7 Noroeste 18 Oeste 0 -- -- 99
2019-11-25 02:00:00 9.7 10 Oeste 19 Noroeste 0 -- -- 99
2019-11-25 01:00:00 9.7 7 Noroeste 18 Sudoeste 0 -- -- 92
2019-11-25 00:00:00 10.4 10 Oeste 20 Oeste 0 -- -- 89
2019-11-24 23:00:00 10.5 8 Oeste 19 Oeste 0 -- -- 86
2019-11-24 22:00:00 10.5 6 Oeste 14 Oeste 0 -- -- 82
2019-11-24 21:00:00 10.5 8 Noroeste 17 Noroeste 0 -- -- 82
2019-11-24 20:00:00 10.2 5 Oeste 16 Noroeste 0 -- -- 86
2019-11-24 19:00:00 9.3 5 Noroeste 13 Noroeste 0 -- -- 86
2019-11-24 18:00:00 10.2 6 Noroeste 14 Noroeste 0 -- -- 77
2019-11-24 17:00:00 10.9 11 Oeste 18 Oeste 0 -- -- 71
2019-11-24 16:00:00 11.6 8 Noroeste 19 Oeste 0 -- -- 62
2019-11-24 15:00:00 12.9 9 Oeste 19 Oeste 0 -- -- 62
2019-11-24 14:00:00 12 8 Noroeste 17 Oeste 0 -- -- 66
2019-11-24 13:00:00 11.3 9 Oeste 15 Oeste 0 -- -- 68
2019-11-24 12:00:00 10 7 Noroeste 14 Oeste 0 -- -- 80
2019-11-24 11:00:00 9.4 6 Noroeste 12 Noroeste 0 -- -- 85
2019-11-24 10:00:00 8.4 6 Noroeste 10 Noroeste 0 -- -- 93
2019-11-24 09:00:00 6.9 5 Noroeste 10 Noroeste 0 -- -- 99
2019-11-24 08:00:00 6.6 6 Noroeste 11 Noroeste 0 -- -- 99
2019-11-24 07:00:00 6.2 6 Noroeste 14 Noroeste 0 -- -- 99
2019-11-24 06:00:00 6.6 8 Noroeste 18 Noroeste 0 -- -- 99
2019-11-24 05:00:00 6.9 7 Noroeste 12 Norte 0 -- -- 93
2019-11-24 04:00:00 7.3 7 Noroeste 11 Noroeste 0 -- -- 90
2019-11-24 03:00:00 7.3 7 Noroeste 10 Noroeste 0 -- -- 85
2019-11-24 02:00:00 7.7 3 Norte 10 Oeste 0 -- -- 83
2019-11-24 01:00:00 8 6 Noroeste 12 Noroeste 0 -- -- 80
2019-11-24 00:00:00 8.3 6 Noroeste 13 Oeste 0 -- -- 79
2019-11-23 23:00:00 8.5 6 Noroeste 12 Oeste 0 -- -- 77
2019-11-23 22:00:00 8.6 3 Oeste 12 Oeste 0 -- -- 75
2019-11-23 21:00:00 8.9 4 Noroeste 11 Noroeste 0 -- -- 73
2019-11-23 20:00:00 9.3 6 Noroeste 19 Oeste 0 -- -- 70
2019-11-23 19:00:00 10.2 10 Oeste 29 Noroeste 0 -- -- 66
2019-11-23 18:00:00 10.5 15 Oeste 30 Noroeste 0 -- -- 61
2019-11-23 17:00:00 12.7 14 Noroeste 30 Noroeste 0 -- -- 55
2019-11-23 16:00:00 11.8 13 Noroeste 39 Noroeste 0 -- -- 61
2019-11-23 15:00:00 11.5 19 Oeste 36 Oeste 0 -- -- 66
2019-11-23 14:00:00 11.2 18 Oeste 39 Oeste 0 -- -- 72
2019-11-23 13:00:00 10.6 20 Noroeste 39 Oeste 0 -- -- 74
2019-11-23 12:00:00 10.2 22 Noroeste 39 Oeste 0 -- -- 76
2019-11-23 11:00:00 9.9 22 Oeste 46 Oeste 0 -- -- 99
2019-11-23 10:00:00 8.6 17 Oeste 34 Oeste 0 -- -- 99
2019-11-23 09:00:00 8.5 15 Oeste 36 Oeste 0 -- -- 99
2019-11-23 08:00:00 8.6 23 Oeste 36 Oeste 0 -- -- 99
2019-11-23 07:00:00 8.8 21 Oeste 43 Oeste 0 -- -- 99
2019-11-23 06:00:00 8.6 24 Oeste 50 Oeste 1.5 -- -- 99
2019-11-23 05:00:00 9.7 24 Oeste 51 Oeste 1.9 -- -- 99
2019-11-23 04:00:00 10.2 31 Oeste 56 Oeste 0.2 -- -- 99
2019-11-23 03:00:00 10.5 33 Oeste 61 Oeste 0 -- -- 99
2019-11-23 02:00:00 10.7 33 Oeste 60 Oeste 0 -- -- 99
2019-11-23 01:00:00 11.1 28 Oeste 47 Oeste 0 -- -- 99
2019-11-23 00:00:00 11.1 22 Oeste 53 Noroeste 0 -- -- 99
2019-11-22 23:00:00 10.7 23 Oeste 52 Oeste 0 -- -- 99
2019-11-22 22:00:00 11.3 24 Oeste 48 Oeste 0 -- -- 99
2019-11-22 21:00:00 11.1 29 Oeste 55 Oeste 0 -- -- 99
2019-11-22 20:00:00 12.1 33 Oeste 68 Oeste 0.8 -- -- 99
2019-11-22 19:00:00 14.3 45 Oeste 79 Noroeste 3.7 -- -- 99
2019-11-22 18:00:00 13.7 34 Oeste 72 Sudoeste 9.4 -- -- 99
2019-11-22 17:00:00 13.3 31 Oeste 75 Oeste 5.4 -- -- 99
2019-11-22 16:00:00 13.4 37 Sudoeste 83 Oeste 5.9 -- -- 99
2019-11-22 15:00:00 14.1 37 Oeste 72 Oeste 1.8 -- -- 93
2019-11-22 14:00:00 14.3 30 Sudoeste 68 Sudoeste 0.1 -- -- 82
2019-11-22 13:00:00 13.9 31 Oeste 67 Oeste 0.9 -- -- 84
2019-11-22 12:00:00 14.8 33 Oeste 62 Sudoeste 0.2 -- -- 84
2019-11-22 11:00:00 14.3 30 Oeste 53 Sudoeste 0 -- -- 94
2019-11-22 10:00:00 13.7 18 Oeste 33 Oeste 0 -- -- 99
2019-11-22 09:00:00 12.1 9 Noroeste 20 Oeste 0.6 -- -- 99
2019-11-22 08:00:00 11.9 9 Noroeste 15 Noroeste 3.3 -- -- 99
2019-11-22 07:00:00 12 10 Noroeste 19 Norte 0.3 -- -- 99
2019-11-22 06:00:00 11.8 10 Noroeste 22 Noroeste 0.4 -- -- 99
2019-11-22 05:00:00 11.6 13 Noroeste 37 Oeste 0.5 -- -- 99
2019-11-22 04:00:00 11.4 10 Noroeste 27 Noroeste 0.8 -- -- 99
2019-11-22 03:00:00 11.6 13 Oeste 30 Oeste 1.1 -- -- 99
2019-11-22 02:00:00 11.4 17 Oeste 36 Oeste 0.1 -- -- 99
2019-11-22 01:00:00 11.7 22 Oeste 36 Sudoeste 0.1 -- -- 99
2019-11-22 00:00:00 11.7 20 Oeste 39 Sudoeste 0.4 -- -- 99
2019-11-21 23:00:00 11.5 18 Oeste 37 Oeste 1.1 -- -- 99
2019-11-21 22:00:00 11 4 Noroeste 14 Oeste 2.4 -- -- 99
2019-11-21 21:00:00 11 9 Noroeste 18 Oeste 0.5 -- -- 99
2019-11-21 20:00:00 10.8 13 Oeste 22 Oeste 1.6 -- -- 99
2019-11-21 19:00:00 10.8 12 Oeste 20 Noroeste 0.3 -- -- 99
2019-11-21 18:00:00 11.1 5 Oeste 19 Norte 3.5 -- -- 99
2019-11-21 17:00:00 11.3 6 Norte 22 Norte 9.2 -- -- 99
2019-11-21 16:00:00 11.6 6 Noroeste 24 Noroeste 4.3 -- -- 99
2019-11-21 15:00:00 11.9 9 Noroeste 37 Oeste 2.2 -- -- 97
2019-11-21 14:00:00 13.1 15 Oeste 34 Oeste 0 -- -- 72
2019-11-21 13:00:00 11.9 17 Oeste 39 Oeste 0 -- -- 81
2019-11-21 12:00:00 12.1 19 Oeste 30 Oeste 0 -- -- 84
2019-11-21 11:00:00 11 14 Oeste 24 Sudoeste 3.4 -- -- 99
2019-11-21 10:00:00 9.8 14 Noroeste 32 Noroeste 2.9 -- -- 99
2019-11-21 09:00:00 10.8 17 Oeste 30 Oeste 0.4 -- -- 99
2019-11-21 08:00:00 10.3 21 Oeste 30 Oeste 0.1 -- -- 99
2019-11-21 07:00:00 10.1 18 Oeste 32 Oeste 0.5 -- -- 99
2019-11-21 06:00:00 10.1 18 Oeste 32 Oeste 0.2 -- -- 99
2019-11-21 05:00:00 9.7 17 Noroeste 35 Noroeste 3.4 -- -- 99
2019-11-21 04:00:00 9.5 12 Oeste 24 Noroeste 0.5 -- -- 99
2019-11-21 03:00:00 9.2 10 Noroeste 21 Noroeste 0.6 -- -- 99
2019-11-21 02:00:00 8.7 10 Noroeste 26 Oeste 0.7 -- -- 99
2019-11-21 01:00:00 9.3 15 Oeste 32 Oeste 1.2 -- -- 97
2019-11-21 00:00:00 9.7 17 Oeste 31 Oeste 0.2 -- -- 88
2019-11-20 23:00:00 10.3 19 Oeste 35 Oeste 0 -- -- 84
2019-11-20 22:00:00 10.3 21 Oeste 39 Oeste 0 -- -- 84
2019-11-20 21:00:00 10.6 24 Oeste 44 Oeste 0 -- -- 86
2019-11-20 20:00:00 10.6 22 Oeste 44 Oeste 0.3 -- -- 89
2019-11-20 19:00:00 10.5 18 Oeste 39 Sudoeste 0.5 -- -- 85
2019-11-20 18:00:00 10.5 16 Sudoeste 40 Sudoeste 0.6 -- -- 83
2019-11-20 17:00:00 10.8 15 Oeste 36 Oeste 0.4 -- -- 77
2019-11-20 16:00:00 10.6 14 Sudoeste 32 Sur 0.6 -- -- 74
2019-11-20 15:00:00 10 8 Oeste 22 Sur 0.1 -- -- 77
2019-11-20 14:00:00 9.6 3 Norte 13 Oeste 0 -- -- 69
2019-11-20 13:00:00 10 10 Oeste 26 Oeste 0 -- -- 66
2019-11-20 12:00:00 11 13 Oeste 28 Oeste 0 -- -- 55
2019-11-20 11:00:00 10 9 Oeste 19 Sudoeste 0 -- -- 56
2019-11-20 10:00:00 9.7 6 Noroeste 10 Noroeste 0 -- -- 66
2019-11-20 09:00:00 8 3 Sudeste 12 Este 0 -- -- 69
2019-11-20 08:00:00 7.8 6 Sudeste 11 Sudeste 0 -- -- 69
2019-11-20 07:00:00 7.6 4 Este 10 Sudeste 0 -- -- 70
2019-11-20 06:00:00 7.7 4 Sudeste 6 Este 0 -- -- 69
2019-11-20 05:00:00 7.9 2 Este 6 Este 0 -- -- 70
2019-11-20 04:00:00 8.6 0 Calma 10 Oeste 0 -- -- 69
2019-11-20 03:00:00 8.8 3 Noroeste 6 Oeste 0 -- -- 61
2019-11-20 02:00:00 9 0 Calma 5 Norte 0 -- -- 54
2019-11-20 01:00:00 9 0 Calma 4 Noroeste 0 -- -- 57
2019-11-20 00:00:00 9.3 0 Calma 4 Este 0 -- -- 58
2019-11-19 23:00:00 9.1 2 Sudeste 4 Sudeste 0 -- -- 61
2019-11-19 22:00:00 9.3 0 Calma 7 Nordeste 0 -- -- 64
2019-11-19 21:00:00 9.2 3 Este 12 Este 0 -- -- 65
2019-11-19 20:00:00 8.9 4 Este 6 Sudeste 0 -- -- 66
2019-11-19 19:00:00 9 0 Calma 4 Nordeste 0 -- -- 62
2019-11-19 18:00:00 10.1 2 Noroeste 12 Noroeste 0 -- -- 58
2019-11-19 17:00:00 12 6 Noroeste 13 Noroeste 0 -- -- 55
2019-11-19 16:00:00 12.5 7 Noroeste 16 Noroeste 0 -- -- 55
2019-11-19 15:00:00 11.9 9 Noroeste 15 Noroeste 0 -- -- 57
2019-11-19 14:00:00 12.3 4 Oeste 13 Noroeste 0 -- -- 56
2019-11-19 13:00:00 11.8 6 Noroeste 10 Noroeste 0 -- -- 57
2019-11-19 12:00:00 11.2 4 Oeste 8 Oeste 0 -- -- 62
2019-11-19 11:00:00 10.4 2 Oeste 5 Oeste 0 -- -- 66
2019-11-19 10:00:00 9.2 2 Noroeste 5 Norte 0 -- -- 73
2019-11-19 09:00:00 7.6 2 Norte 4 Noroeste 0 -- -- 76
2019-11-19 08:00:00 7.5 3 Nordeste 5 Nordeste 0 -- -- 78
2019-11-19 07:00:00 6.8 4 Norte 8 Noroeste 0 -- -- 79
2019-11-19 06:00:00 7.3 4 Noroeste 9 Este 0 -- -- 78
2019-11-19 05:00:00 7.1 8 Este 9 Este 0 -- -- 78
2019-11-19 04:00:00 7.1 7 Sudeste 12 Este 0 -- -- 74
2019-11-19 03:00:00 8.2 0 Calma 5 Sudeste 0 -- -- 70
2019-11-19 02:00:00 7.9 2 Nordeste 7 Norte 0 -- -- 71
2019-11-19 01:00:00 8.5 3 Norte 6 Nordeste 0 -- -- 68
2019-11-19 00:00:00 8.4 0 Calma 9 Noroeste 0 -- -- 71
2019-11-18 23:00:00 8.9 2 Noroeste 8 Norte 0 -- -- 66
2019-11-18 22:00:00 9.2 3 Nordeste 4 Nordeste 0 -- -- 66
2019-11-18 21:00:00 9.3 2 Norte 6 Este 0 -- -- 65
2019-11-18 20:00:00 9.3 3 Este 8 Este 0 -- -- 65
2019-11-18 19:00:00 8.8 3 Este 7 Sudeste 0 -- -- 67
2019-11-18 18:00:00 11.2 0 Calma 12 Nordeste 0 -- -- 56
2019-11-18 17:00:00 12.8 5 Nordeste 13 Norte 0 -- -- 52
2019-11-18 16:00:00 13 5 Nordeste 14 Nordeste 0 -- -- 54
2019-11-18 15:00:00 12.8 2 Este 14 Nordeste 0 -- -- 58
2019-11-18 14:00:00 11.5 5 Nordeste 15 Nordeste 0 -- -- 63
2019-11-18 13:00:00 9.6 5 Nordeste 17 Nordeste 0 -- -- 71
2019-11-18 12:00:00 10 6 Este 15 Este 0 -- -- 99
2019-11-18 11:00:00 7.4 3 Oeste 10 Noroeste 0 -- -- 99
2019-11-18 10:00:00 6.1 2 Noroeste 8 Oeste 0 -- -- 99
2019-11-18 09:00:00 6.1 0 Calma 11 Oeste 0 -- -- 99
2019-11-18 08:00:00 5.9 4 Oeste 9 Oeste 0 -- -- 99
2019-11-18 07:00:00 6.1 5 Noroeste 14 Norte 0 -- -- 99
2019-11-18 06:00:00 6.6 8 Norte 30 Noroeste 0 -- -- 99
2019-11-18 05:00:00 9.8 8 Noroeste 33 Oeste 1.2 -- -- 99
2019-11-18 04:00:00 10.5 18 Noroeste 37 Oeste 1.6 -- -- 99
2019-11-18 03:00:00 10.6 24 Oeste 45 Noroeste 0.1 -- -- 99
2019-11-18 02:00:00 10.7 32 Oeste 62 Oeste 3.1 -- -- 99
2019-11-18 01:00:00 11 26 Oeste 53 Oeste 4.3 -- -- 99
2019-11-18 00:00:00 11.1 29 Oeste 51 Noroeste 1.9 -- -- 99
2019-11-17 23:00:00 11.7 25 Oeste 48 Oeste 0 -- -- 99
2019-11-17 22:00:00 11.7 28 Oeste 51 Oeste 0.2 -- -- 99
2019-11-17 21:00:00 11.4 28 Oeste 51 Oeste 0.9 -- -- 99
2019-11-17 20:00:00 11.3 27 Oeste 49 Oeste 1.4 -- -- 99
2019-11-17 19:00:00 11 27 Oeste 43 Oeste 0.1 -- -- 99
2019-11-17 18:00:00 10.6 27 Oeste 49 Oeste 0.2 -- -- 99
2019-11-17 17:00:00 10 22 Oeste 44 Oeste 0.3 -- -- 99
2019-11-17 16:00:00 9.7 26 Oeste 46 Oeste 0 -- -- 99
2019-11-17 15:00:00 9.4 26 Oeste 46 Oeste 0 -- -- 99
2019-11-17 14:00:00 9.2 28 Oeste 55 Oeste 0 -- -- 98
2019-11-17 13:00:00 8.7 28 Oeste 48 Oeste 0 -- -- 97
2019-11-17 12:00:00 6.8 21 Noroeste 42 Noroeste 0 -- -- 99
2019-11-17 11:00:00 6 19 Noroeste 34 Oeste 0 -- -- 96
2019-11-17 10:00:00 7.4 17 Oeste 31 Oeste 0 -- -- 71
2019-11-17 09:00:00 7.2 13 Noroeste 25 Noroeste 0 -- -- 70
2019-11-17 08:00:00 6 11 Noroeste 18 Noroeste 0 -- -- 71
2019-11-17 07:00:00 5.9 5 Noroeste 15 Noroeste 0 -- -- 70
2019-11-17 06:00:00 5.3 9 Noroeste 18 Noroeste 0 -- -- 72
2019-11-17 05:00:00 5.3 8 Noroeste 16 Oeste 0 -- -- 72
2019-11-17 04:00:00 5.8 8 Noroeste 19 Noroeste 0 -- -- 70
2019-11-17 03:00:00 6.1 7 Noroeste 17 Noroeste 0 -- -- 69
2019-11-17 02:00:00 6.4 9 Noroeste 14 Noroeste 0 -- -- 66
2019-11-17 01:00:00 6.9 5 Noroeste 13 Norte 0 -- -- 62
2019-11-17 00:00:00 6.8 5 Noroeste 11 Norte 0 -- -- 58
2019-11-16 23:00:00 7.2 6 Noroeste 17 Noroeste 0 -- -- 58
2019-11-16 22:00:00 7.2 8 Noroeste 15 Norte 0 -- -- 57
2019-11-16 21:00:00 7.4 4 Noroeste 25 Oeste 0 -- -- 57
2019-11-16 20:00:00 7.7 6 Noroeste 17 Noroeste 0 -- -- 56
2019-11-16 19:00:00 8 8 Noroeste 15 Noroeste 0 -- -- 54
2019-11-16 18:00:00 8.7 6 Oeste 17 Oeste 0 -- -- 52
2019-11-16 17:00:00 10.4 13 Noroeste 20 Noroeste 0 -- -- 44
2019-11-16 16:00:00 11.2 8 Noroeste 15 Norte 0 -- -- 43
2019-11-16 15:00:00 11 7 Oeste 17 Oeste 0 -- -- 51
2019-11-16 14:00:00 10.2 9 Oeste 15 Oeste 0 -- -- 55
2019-11-16 13:00:00 9.6 6 Oeste 19 Noroeste 0 -- -- 59
2019-11-16 12:00:00 8.4 5 Oeste 13 Noroeste 0 -- -- 64
2019-11-16 11:00:00 6.8 6 Noroeste 15 Noroeste 0 -- -- 68
2019-11-16 10:00:00 7.4 4 Sudeste 12 Este 0 -- -- 68
2019-11-16 09:00:00 3.4 5 Este 6 Este 0 -- -- 81
2019-11-16 08:00:00 3.2 2 Este 8 Norte 0 -- -- 83
2019-11-16 07:00:00 3.5 4 Noroeste 6 Norte 0 -- -- 79
2019-11-16 06:00:00 4 3 Noroeste 8 Noroeste 0 -- -- 76
2019-11-16 05:00:00 4.9 0 Calma 3 Norte 0 -- -- 71
2019-11-16 04:00:00 5.5 0 Calma 6 Norte 0 -- -- 72
2019-11-16 03:00:00 5 5 Noroeste 12 Noroeste 0 -- -- 74
2019-11-16 02:00:00 5.4 5 Noroeste 10 Noroeste 0 -- -- 72
2019-11-16 01:00:00 5.8 5 Noroeste 9 Oeste 0 -- -- 69
2019-11-16 00:00:00 6.3 4 Noroeste 10 Noroeste 0 -- -- 68
2019-11-15 23:00:00 6.3 3 Noroeste 9 Oeste 0 -- -- 69
2019-11-15 22:00:00 6.2 4 Noroeste 10 Noroeste 0 -- -- 70
2019-11-15 21:00:00 5.7 0 Calma 9 Oeste 0 -- -- 72
2019-11-15 20:00:00 5.8 4 Noroeste 12 Oeste 0 -- -- 74
2019-11-15 19:00:00 5.5 6 Noroeste 12 Noroeste 0 -- -- 79
2019-11-15 18:00:00 5.7 4 Noroeste 14 Oeste 0 -- -- 78
2019-11-15 17:00:00 6.5 10 Noroeste 23 Noroeste 0 -- -- 72
2019-11-15 16:00:00 7.1 12 Noroeste 19 Oeste 0 -- -- 61
2019-11-15 15:00:00 7.1 14 Noroeste 24 Oeste 0 -- -- 58
2019-11-15 14:00:00 8.3 15 Noroeste 27 Noroeste 0 -- -- 53
2019-11-15 13:00:00 7 17 Noroeste 25 Oeste 0 -- -- 62
2019-11-15 12:00:00 6 12 Noroeste 25 Noroeste 0 -- -- 72
2019-11-15 11:00:00 6.6 15 Oeste 25 Oeste 0 -- -- 83
2019-11-15 10:00:00 5.4 13 Oeste 23 Oeste 0 -- -- 98
2019-11-15 09:00:00 4.6 10 Oeste 23 Oeste 0 -- -- 99
2019-11-15 08:00:00 4.2 15 Oeste 30 Noroeste 0 -- -- 99
2019-11-15 07:00:00 4.4 19 Oeste 30 Oeste 0 -- -- 99
2019-11-15 06:00:00 4.9 17 Oeste 35 Oeste 0 -- -- 99
2019-11-15 05:00:00 5.2 20 Oeste 37 Oeste 0 -- -- 99
2019-11-15 04:00:00 5.5 22 Oeste 42 Oeste 0 -- -- 99
2019-11-15 03:00:00 6.1 22 Oeste 38 Oeste 0 -- -- 99
2019-11-15 02:00:00 6.6 22 Oeste 40 Oeste 0 -- -- 99
2019-11-15 01:00:00 6.9 22 Oeste 44 Oeste 0 -- -- 94
2019-11-15 00:00:00 7.3 19 Oeste 45 Oeste 0 -- -- 86
2019-11-14 23:00:00 7.6 23 Oeste 43 Oeste 0 -- -- 83
2019-11-14 22:00:00 8.1 23 Oeste 41 Sudoeste 0 -- -- 78
2019-11-14 21:00:00 8.3 23 Oeste 40 Oeste 0 -- -- 76
2019-11-14 20:00:00 8.1 23 Oeste 38 Oeste 0 -- -- 76
2019-11-14 19:00:00 8.1 16 Oeste 35 Oeste 0 -- -- 74
2019-11-14 18:00:00 9.3 20 Oeste 41 Oeste 0 -- -- 64
2019-11-14 17:00:00 10.1 21 Oeste 35 Oeste 0 -- -- 66
2019-11-14 16:00:00 9.7 21 Oeste 39 Oeste 0 -- -- 84
2019-11-14 15:00:00 8.6 19 Oeste 40 Noroeste 0.1 -- -- 99
2019-11-14 14:00:00 8.2 18 Oeste 53 Noroeste 0.8 -- -- 99
2019-11-14 13:00:00 9.3 31 Oeste 50 Oeste 0.8 -- -- 99
2019-11-14 12:00:00 9.4 29 Oeste 47 Oeste 0.7 -- -- 99
2019-11-14 11:00:00 9.3 27 Oeste 50 Oeste 0 -- -- 99
2019-11-14 10:00:00 9.4 29 Oeste 51 Oeste 0 -- -- 91
2019-11-14 09:00:00 9.4 23 Oeste 41 Oeste 0 -- -- 86
2019-11-14 08:00:00 8.5 14 Oeste 27 Oeste 0 -- -- 99
2019-11-14 07:00:00 8.9 15 Oeste 29 Oeste 0 -- -- 99
2019-11-14 06:00:00 9.1 19 Oeste 35 Oeste 0 -- -- 99
2019-11-14 05:00:00 10.5 23 Oeste 42 Oeste 0 -- -- 99
2019-11-14 04:00:00 11.3 21 Oeste 39 Oeste 0 -- -- 99
2019-11-14 03:00:00 11.8 21 Oeste 39 Oeste 0 -- -- 99
2019-11-14 02:00:00 12.3 23 Oeste 36 Oeste 0 -- -- 99
2019-11-14 01:00:00 12.2 17 Oeste 32 Oeste 0 -- -- 99
2019-11-14 00:00:00 12.4 19 Oeste 33 Oeste 0 -- -- 99
2019-11-13 23:00:00 12.6 17 Oeste 34 Oeste 0 -- -- 99
2019-11-13 22:00:00 13 20 Oeste 42 Oeste 0 -- -- 97
2019-11-13 21:00:00 13.1 19 Oeste 39 Oeste 0 -- -- 96
2019-11-13 20:00:00 13.7 19 Oeste 33 Oeste 0 -- -- 84
2019-11-13 19:00:00 13.8 17 Oeste 28 Oeste 0 -- -- 91
2019-11-13 18:00:00 13.7 13 Oeste 26 Oeste 0 -- -- 99
2019-11-13 17:00:00 14.5 14 Oeste 28 Oeste 0 -- -- 99
2019-11-13 16:00:00 13.6 15 Oeste 26 Oeste 0 -- -- 99
2019-11-13 15:00:00 13.1 14 Oeste 30 Oeste 0 -- -- 99
2019-11-13 14:00:00 12.4 18 Oeste 34 Oeste 0 -- -- 99
2019-11-13 13:00:00 12.1 22 Oeste 43 Oeste 0 -- -- 99
2019-11-13 12:00:00 11.9 20 Oeste 39 Oeste 0 -- -- 99
2019-11-13 11:00:00 11.6 22 Oeste 40 Oeste 0.1 -- -- 99
2019-11-13 10:00:00 11.2 23 Oeste 42 Oeste 0.2 -- -- 99
2019-11-13 09:00:00 10.9 24 Oeste 45 Oeste 0.3 -- -- 99
2019-11-13 08:00:00 10.7 24 Oeste 39 Oeste 0.3 -- -- 99
2019-11-13 07:00:00 10.2 21 Oeste 36 Oeste 0 -- -- 99
2019-11-13 06:00:00 10 19 Oeste 35 Oeste 0 -- -- 99
2019-11-13 05:00:00 10.3 22 Oeste 36 Oeste 0 -- -- 95
2019-11-13 04:00:00 10.4 18 Oeste 33 Oeste 0 -- -- 79
2019-11-13 03:00:00 11.1 18 Oeste 31 Oeste 0 -- -- 73
2019-11-13 02:00:00 10.9 16 Oeste 27 Oeste 0 -- -- 67
2019-11-13 01:00:00 11.2 10 Oeste 20 Oeste 0 -- -- 66
2019-11-13 00:00:00 10.7 9 Noroeste 18 Oeste 0 -- -- 64
2019-11-12 23:00:00 10.5 5 Noroeste 12 Noroeste 0 -- -- 63
2019-11-12 22:00:00 10.8 5 Noroeste 9 Noroeste 0 -- -- 63
2019-11-12 21:00:00 10.8 3 Noroeste 14 Oeste 0 -- -- 69
2019-11-12 20:00:00 10.8 7 Noroeste 15 Noroeste 0 -- -- 73
2019-11-12 19:00:00 11.4 8 Noroeste 14 Oeste 0 -- -- 69
2019-11-12 18:00:00 12.4 6 Oeste 18 Noroeste 0 -- -- 61
2019-11-12 17:00:00 13.5 13 Noroeste 22 Oeste 0 -- -- 54
2019-11-12 16:00:00 14.1 13 Oeste 21 Oeste 0 -- -- 53
2019-11-12 15:00:00 13.4 10 Noroeste 20 Noroeste 0 -- -- 56
2019-11-12 14:00:00 14.3 8 Noroeste 18 Noroeste 0 -- -- 64
2019-11-12 13:00:00 12.8 6 Noroeste 12 Noroeste 0 -- -- 73
2019-11-12 12:00:00 13.7 0 Calma 17 Sudeste 0 -- -- 66
2019-11-12 11:00:00 12.1 10 Este 18 Este 0 -- -- 99
2019-11-12 10:00:00 10.4 7 Este 12 Este 0 -- -- 99
2019-11-12 09:00:00 9.3 8 Este 15 Sudeste 0 -- -- 99
2019-11-12 08:00:00 9.2 3 Este 14 Sudeste 0 -- -- 99
2019-11-12 07:00:00 9.5 6 Nordeste 18 Sudeste 0 -- -- 99
2019-11-12 06:00:00 9.6 11 Sudeste 14 Sudeste 0 -- -- 99
2019-11-12 05:00:00 9.2 8 Sudeste 10 Sudeste 0 -- -- 99
2019-11-12 04:00:00 9.9 4 Este 10 Sudeste 0 -- -- 99
2019-11-12 03:00:00 9.9 7 Este 10 Este 0 -- -- 98
2019-11-12 02:00:00 10.5 3 Este 9 Este 0 -- -- 98
2019-11-12 01:00:00 10.1 8 Sudeste 10 Sudeste 0 -- -- 98
2019-11-12 00:00:00 11 8 Sudeste 13 Sudeste 0 -- -- 98
2019-11-11 23:00:00 11.2 8 Sudeste 13 Sudeste 0 -- -- 98
2019-11-11 22:00:00 11.9 6 Sudeste 14 Sudeste 0 -- -- 99
2019-11-11 21:00:00 11.6 3 Este 14 Este 0 -- -- 99
2019-11-11 20:00:00 11.5 3 Este 7 Sudeste 0 -- -- 99
2019-11-11 19:00:00 10.9 0 Calma 10 Noroeste 0 -- -- 99
2019-11-11 18:00:00 11.1 6 Noroeste 13 Noroeste 0 -- -- 92
2019-11-11 17:00:00 10.8 9 Noroeste 25 Noroeste 0 -- -- 85
2019-11-11 16:00:00 11.4 9 Noroeste 21 Noroeste 0 -- -- 79
2019-11-11 15:00:00 11.5 12 Oeste 19 Oeste 0 -- -- 75
2019-11-11 14:00:00 11.5 10 Oeste 18 Oeste 0 -- -- 74
2019-11-11 13:00:00 11.7 9 Oeste 18 Oeste 0 -- -- 73
2019-11-11 12:00:00 10.7 10 Oeste 18 Oeste 0 -- -- 76
2019-11-11 11:00:00 10.1 10 Oeste 14 Oeste 0 -- -- 81
2019-11-11 10:00:00 9.2 4 Noroeste 7 Oeste 0 -- -- 84
2019-11-11 09:00:00 8.6 0 Calma 4 Sudeste 0 -- -- 85
2019-11-11 08:00:00 7.9 0 Calma 4 Norte 0 -- -- 85
2019-11-11 07:00:00 7.9 0 Calma 6 Norte 0 -- -- 84
2019-11-11 06:00:00 8.2 2 Noroeste 4 Noroeste 0 -- -- 82
2019-11-11 05:00:00 8.4 0 Calma 5 Noroeste 0 -- -- 80
2019-11-11 04:00:00 8.5 3 Noroeste 6 Oeste 0 -- -- 80
2019-11-11 03:00:00 8.5 4 Sudeste 6 Sudeste 0 -- -- 79
2019-11-11 02:00:00 8.7 0 Calma 6 Noroeste 0 -- -- 77
2019-11-11 01:00:00 8.7 4 Noroeste 6 Noroeste 0 -- -- 76
2019-11-11 00:00:00 8.5 3 Noroeste 8 Noroeste 0 -- -- 73
2019-11-10 23:00:00 8.9 6 Noroeste 16 Oeste 0 -- -- 69
2019-11-10 22:00:00 9.1 0 Calma 12 Oeste 0 -- -- 64
2019-11-10 21:00:00 9.3 3 Oeste 18 Noroeste 0 -- -- 61
2019-11-10 20:00:00 9.6 11 Noroeste 25 Noroeste 0 -- -- 57
2019-11-10 19:00:00 10.2 15 Noroeste 27 Noroeste 0 -- -- 53
2019-11-10 18:00:00 10.9 10 Noroeste 27 Norte 0 -- -- 47
2019-11-10 17:00:00 11.3 11 Noroeste 24 Norte 0 -- -- 50
2019-11-10 16:00:00 11.6 12 Noroeste 24 Noroeste 0 -- -- 47
2019-11-10 15:00:00 12 13 Noroeste 25 Noroeste 0 -- -- 50
2019-11-10 14:00:00 11.3 13 Noroeste 24 Noroeste 0 -- -- 55
2019-11-10 13:00:00 11 13 Noroeste 21 Noroeste 0 -- -- 58
2019-11-10 12:00:00 10.4 12 Noroeste 20 Oeste 0 -- -- 64
2019-11-10 11:00:00 10 8 Noroeste 17 Noroeste 0 -- -- 74
2019-11-10 10:00:00 9 6 Noroeste 13 Noroeste 0 -- -- 94
2019-11-10 09:00:00 8.5 4 Noroeste 9 Noroeste 0 -- -- 99
2019-11-10 08:00:00 8.4 6 Noroeste 12 Noroeste 0 -- -- 99
2019-11-10 07:00:00 9.1 6 Noroeste 15 Noroeste 0 -- -- 99
2019-11-10 06:00:00 10 10 Noroeste 18 Oeste 0 -- -- 99
2019-11-10 05:00:00 10.2 10 Noroeste 23 Noroeste 0 -- -- 99
2019-11-10 04:00:00 10.4 14 Noroeste 29 Oeste 0 -- -- 99
2019-11-10 03:00:00 10.5 18 Oeste 36 Oeste 0 -- -- 99
2019-11-10 02:00:00 10.1 19 Oeste 42 Oeste 0 -- -- 99
2019-11-10 01:00:00 9.9 24 Oeste 41 Oeste 0 -- -- 99
2019-11-10 00:00:00 10.5 21 Oeste 36 Oeste 0 -- -- 94
2019-11-09 23:00:00 10.4 23 Oeste 46 Oeste 0 -- -- 64
2019-11-09 22:00:00 11.7 20 Oeste 36 Oeste 0 -- -- 51
2019-11-09 21:00:00 11.1 16 Oeste 26 Oeste 0 -- -- 53
2019-11-09 20:00:00 11.1 12 Noroeste 21 Oeste 0 -- -- 55
2019-11-09 19:00:00 11.3 12 Noroeste 19 Noroeste 0 -- -- 54
2019-11-09 18:00:00 10.9 8 Oeste 15 Noroeste 0 -- -- 54
2019-11-09 17:00:00 12.1 11 Oeste 21 Oeste 0 -- -- 47
2019-11-09 16:00:00 14.1 12 Oeste 17 Noroeste 0 -- -- 43
2019-11-09 15:00:00 14.3 9 Noroeste 21 Noroeste 0 -- -- 42
2019-11-09 14:00:00 13.6 10 Noroeste 19 Noroeste 0 -- -- 46
2019-11-09 13:00:00 12.6 9 Noroeste 19 Noroeste 0 -- -- 47
2019-11-09 12:00:00 12.1 7 Noroeste 17 Noroeste 0 -- -- 50
2019-11-09 11:00:00 11.1 4 Oeste 9 Oeste 0 -- -- 53
2019-11-09 10:00:00 9.8 2 Sudoeste 7 Nordeste 0 -- -- 58
2019-11-09 09:00:00 7.9 0 Calma 5 Este 0 -- -- 62
2019-11-09 08:00:00 7.3 2 Norte 7 Norte 0 -- -- 61
2019-11-09 07:00:00 7.6 5 Norte 7 Noroeste 0 -- -- 59
2019-11-09 06:00:00 7.9 0 Calma 4 Nordeste 0 -- -- 58
2019-11-09 05:00:00 8 0 Calma 4 Noroeste 0 -- -- 57
2019-11-09 04:00:00 8.2 2 Norte 4 Nordeste 0 -- -- 56
2019-11-09 03:00:00 8.1 0 Calma 5 Sudeste 0 -- -- 56
2019-11-09 02:00:00 8.9 0 Calma 4 Sudeste 0 -- -- 54
2019-11-09 01:00:00 9 2 Este 5 Este 0 -- -- 55
2019-11-09 00:00:00 8.7 2 Sudeste 5 Este 0 -- -- 56